createdAt,value
2019-03-24T00:00:53.328Z,44.73
2019-03-24T00:03:26.519Z,36.60
2019-03-24T00:05:56.692Z,41.67
2019-03-24T00:08:28.211Z,38.57
2019-03-24T00:10:58.074Z,43.80
2019-03-24T00:13:27.786Z,44.83
2019-03-24T00:16:03.339Z,39.60
2019-03-24T00:18:34.722Z,33.87
2019-03-24T00:21:11.135Z,34.63
2019-03-24T00:23:44.327Z,43.93
2019-03-24T00:26:13.731Z,49.20
2019-03-24T00:28:45.866Z,38.53
2019-03-24T00:31:17.516Z,37.53
2019-03-24T00:33:48.229Z,41.23
2019-03-24T00:36:20.122Z,45.20
2019-03-24T00:38:52.551Z,33.50
2019-03-24T00:41:22.447Z,39.70
2019-03-24T00:43:54.047Z,37.13
2019-03-24T00:46:24.903Z,44.00
2019-03-24T00:48:56.132Z,35.33
2019-03-24T00:51:28.225Z,32.53
2019-03-24T00:53:57.512Z,39.07
2019-03-24T00:56:26.690Z,34.73
2019-03-24T00:58:57.601Z,35.13
2019-03-24T01:01:27.411Z,41.00
2019-03-24T01:03:57.169Z,37.63
2019-03-24T01:06:27.591Z,38.80
2019-03-24T01:08:56.824Z,32.73
2019-03-24T01:11:32.523Z,34.63
2019-03-24T01:14:02.370Z,36.20
2019-03-24T01:16:35.390Z,36.83
2019-03-24T01:19:09.668Z,44.13
2019-03-24T01:21:39.166Z,39.67
2019-03-24T01:24:08.646Z,38.13
2019-03-24T01:26:42.881Z,43.27
2019-03-24T01:29:14.171Z,35.00
2019-03-24T01:31:50.575Z,36.57
2019-03-24T01:34:22.306Z,39.47
2019-03-24T01:36:55.183Z,38.93
2019-03-24T01:39:25.174Z,35.27
2019-03-24T01:41:57.740Z,39.83
2019-03-24T01:44:30.515Z,38.10
2019-03-24T01:47:02.907Z,43.87
2019-03-24T01:49:32.327Z,40.93
2019-03-24T01:52:01.675Z,32.90
2019-03-24T01:54:37.181Z,37.27
2019-03-24T01:57:09.129Z,34.60
2019-03-24T01:59:39.027Z,33.17
2019-03-24T02:02:11.950Z,38.20
2019-03-24T02:04:43.628Z,41.57
2019-03-24T02:07:13.335Z,36.67
2019-03-24T02:09:42.942Z,38.83
2019-03-24T02:12:14.848Z,50.03
2019-03-24T02:14:46.611Z,37.50
2019-03-24T02:17:16.167Z,40.53
2019-03-24T02:19:49.214Z,35.07
2019-03-24T02:22:18.193Z,39.77
2019-03-24T02:24:52.526Z,35.67
2019-03-24T02:27:21.420Z,37.83
2019-03-24T02:29:50.602Z,43.20
2019-03-24T02:32:19.821Z,33.27
2019-03-24T02:34:48.777Z,29.60
2019-03-24T02:37:18.632Z,36.10
2019-03-24T02:39:47.721Z,32.90
2019-03-24T02:42:16.685Z,32.40
2019-03-24T02:44:46.622Z,34.00
2019-03-24T02:47:15.451Z,37.60
2019-03-24T02:49:44.423Z,37.40
2019-03-24T02:52:13.299Z,39.90
2019-03-24T02:54:42.223Z,42.97
2019-03-24T02:57:11.172Z,48.70
2019-03-24T02:59:40.071Z,40.83
2019-03-24T03:02:09.319Z,39.67
2019-03-24T03:04:40.996Z,39.00
2019-03-24T03:07:09.947Z,48.10
2019-03-24T03:09:38.826Z,32.77
2019-03-24T03:12:07.944Z,37.93
2019-03-24T03:14:39.397Z,41.53
2019-03-24T03:17:08.304Z,41.63
2019-03-24T03:19:37.545Z,42.20
2019-03-24T03:22:07.672Z,41.87
2019-03-24T03:24:36.665Z,41.50
2019-03-24T03:27:05.822Z,44.77
2019-03-24T03:29:34.680Z,32.37
2019-03-24T03:32:03.556Z,39.20
2019-03-24T03:34:32.635Z,35.33
2019-03-24T03:37:01.658Z,39.30
2019-03-24T03:39:30.618Z,37.27
2019-03-24T03:41:59.836Z,35.57
2019-03-24T03:44:28.751Z,36.10
2019-03-24T03:46:57.621Z,37.23
2019-03-24T03:49:28.489Z,38.20
2019-03-24T03:51:57.681Z,32.23
2019-03-24T03:54:26.634Z,38.07
2019-03-24T03:56:55.730Z,34.93
2019-03-24T03:59:25.012Z,31.03
2019-03-24T04:01:53.950Z,39.77
2019-03-24T04:04:22.744Z,38.03
2019-03-24T04:06:51.842Z,45.43
2019-03-24T04:09:20.717Z,32.40
2019-03-24T04:11:49.561Z,34.63
2019-03-24T04:14:18.522Z,33.30
2019-03-24T04:16:48.458Z,35.60
2019-03-24T04:19:17.296Z,35.13
2019-03-24T04:21:46.206Z,42.80
2019-03-24T04:24:15.023Z,34.33
2019-03-24T04:26:47.062Z,44.43
2019-03-24T04:29:16.015Z,33.63
2019-03-24T04:31:44.889Z,33.70
2019-03-24T04:34:13.953Z,36.50
2019-03-24T04:36:42.821Z,28.87
2019-03-24T04:39:11.869Z,37.30
2019-03-24T04:41:40.891Z,42.60
2019-03-24T04:44:09.797Z,44.10
2019-03-24T04:46:38.760Z,33.03
2019-03-24T04:49:07.775Z,28.30
2019-03-24T04:51:36.613Z,34.37
2019-03-24T04:54:05.511Z,38.93
2019-03-24T04:56:35.396Z,39.80
2019-03-24T04:59:04.362Z,36.17
2019-03-24T05:01:33.364Z,36.73
2019-03-24T05:04:02.288Z,39.17
2019-03-24T05:06:32.711Z,31.53
2019-03-24T05:09:02.635Z,35.77
2019-03-24T05:11:33.781Z,33.53
2019-03-24T05:14:02.675Z,33.83
2019-03-24T05:16:31.589Z,36.53
2019-03-24T05:19:00.490Z,35.20
2019-03-24T05:21:29.407Z,37.50
2019-03-24T05:23:58.289Z,37.37
2019-03-24T05:26:27.150Z,40.23
2019-03-24T05:28:57.824Z,34.17
2019-03-24T05:31:26.685Z,33.00
2019-03-24T05:33:55.662Z,39.90
2019-03-24T05:36:24.581Z,37.83
2019-03-24T05:38:53.650Z,38.00
2019-03-24T05:41:22.681Z,37.40
2019-03-24T05:43:51.549Z,40.40
2019-03-24T05:46:20.450Z,29.40
2019-03-24T05:48:49.328Z,45.90
2019-03-24T05:51:18.256Z,37.70
2019-03-24T05:53:47.065Z,39.70
2019-03-24T05:56:16.444Z,40.37
2019-03-24T05:58:45.310Z,28.40
2019-03-24T06:01:14.328Z,32.33
2019-03-24T06:03:43.283Z,33.43
2019-03-24T06:06:12.214Z,28.63
2019-03-24T06:08:41.147Z,38.33
2019-03-24T06:11:10.034Z,35.47
2019-03-24T06:13:39.248Z,38.40
2019-03-24T06:16:08.256Z,38.20
2019-03-24T06:18:37.403Z,35.57
2019-03-24T06:21:06.480Z,34.80
2019-03-24T06:23:35.317Z,35.27
2019-03-24T06:26:04.675Z,33.90
2019-03-24T06:28:33.533Z,33.23
2019-03-24T06:31:02.568Z,27.53
2019-03-24T06:33:32.621Z,32.50
2019-03-24T06:36:01.526Z,34.93
2019-03-24T06:38:30.377Z,34.70
2019-03-24T06:40:59.648Z,44.13
2019-03-24T06:43:28.696Z,44.47
2019-03-24T06:45:57.510Z,33.03
2019-03-24T06:48:26.443Z,29.80
2019-03-24T06:50:55.339Z,36.87
2019-03-24T06:53:24.568Z,36.63
2019-03-24T06:55:54.482Z,32.87
2019-03-24T06:58:25.237Z,37.33
2019-03-24T07:00:54.050Z,49.87
2019-03-24T07:03:23.084Z,48.77
2019-03-24T07:05:52.930Z,29.83
2019-03-24T07:08:21.806Z,35.87
2019-03-24T07:10:50.744Z,37.13
2019-03-24T07:13:19.623Z,38.27
2019-03-24T07:15:48.544Z,34.87
2019-03-24T07:18:18.406Z,38.47
2019-03-24T07:20:47.407Z,38.10
2019-03-24T07:23:17.163Z,34.90
2019-03-24T07:25:53.852Z,37.37
2019-03-24T07:28:24.833Z,36.40
2019-03-24T07:30:53.448Z,34.40
2019-03-24T07:33:22.278Z,35.27
2019-03-24T07:35:51.261Z,30.93
2019-03-24T07:38:20.206Z,35.37
2019-03-24T07:40:49.234Z,36.10
2019-03-24T07:43:18.125Z,33.23
2019-03-24T07:45:47.309Z,39.63
2019-03-24T07:48:19.214Z,39.63
2019-03-24T07:50:49.407Z,32.07
2019-03-24T07:53:18.274Z,37.50
2019-03-24T07:55:47.195Z,33.00
2019-03-24T07:58:16.032Z,31.90
2019-03-24T08:00:45.153Z,44.00
2019-03-24T08:03:14.479Z,34.70
2019-03-24T08:05:44.535Z,30.17
2019-03-24T08:08:13.473Z,36.13
2019-03-24T08:10:42.687Z,36.47
2019-03-24T08:13:11.615Z,29.37
2019-03-24T08:15:41.808Z,31.37
2019-03-24T08:18:11.025Z,34.77
2019-03-24T08:20:39.960Z,34.83
2019-03-24T08:23:08.923Z,33.43
2019-03-24T08:25:37.836Z,33.07
2019-03-24T08:28:08.973Z,35.60
2019-03-24T08:30:38.597Z,33.67
2019-03-24T08:33:07.509Z,29.23
2019-03-24T08:35:36.587Z,35.23
2019-03-24T08:38:06.960Z,30.93
2019-03-24T08:40:36.168Z,35.33
2019-03-24T08:43:06.165Z,25.80
2019-03-24T08:45:35.057Z,44.87
2019-03-24T08:48:04.518Z,31.70
2019-03-24T08:50:33.513Z,31.53
2019-03-24T08:53:03.195Z,24.80
2019-03-24T08:55:33.229Z,38.30
2019-03-24T08:58:20.548Z,29.53
2019-03-24T09:00:49.714Z,25.13
2019-03-24T09:03:20.484Z,24.27
2019-03-24T09:05:49.702Z,25.73
2019-03-24T09:08:19.871Z,29.37
2019-03-24T09:10:48.759Z,25.87
2019-03-24T09:13:17.692Z,28.53
2019-03-24T09:15:46.619Z,24.67
2019-03-24T09:18:15.688Z,24.73
2019-03-24T09:20:44.630Z,20.30
2019-03-24T09:23:15.481Z,24.67
2019-03-24T09:25:46.808Z,25.30
2019-03-24T09:28:15.818Z,29.03
2019-03-24T09:30:44.767Z,22.03
2019-03-24T09:33:13.789Z,27.93
2019-03-24T09:35:42.888Z,30.23
2019-03-24T09:38:11.992Z,33.67
2019-03-24T09:40:41.043Z,28.50
2019-03-24T09:43:10.176Z,20.77
2019-03-24T09:45:39.167Z,22.40
2019-03-24T09:48:08.211Z,23.30
2019-03-24T09:50:37.166Z,32.43
2019-03-24T09:53:06.031Z,24.20
2019-03-24T09:55:35.045Z,25.70
2019-03-24T09:58:05.243Z,23.47
2019-03-24T10:00:34.159Z,28.40
2019-03-24T10:03:05.066Z,25.67
2019-03-24T10:05:34.242Z,25.07
2019-03-24T10:08:04.316Z,26.03
2019-03-24T10:10:33.316Z,23.27
2019-03-24T10:13:02.294Z,29.43
2019-03-24T10:15:31.354Z,24.27
2019-03-24T10:18:01.392Z,24.53
2019-03-24T10:20:30.341Z,19.20
2019-03-24T10:22:59.867Z,28.30
2019-03-24T10:25:28.714Z,26.07
2019-03-24T10:28:00.869Z,24.13
2019-03-24T10:30:29.961Z,24.40
2019-03-24T10:32:59.095Z,26.83
2019-03-24T10:35:28.328Z,27.77
2019-03-24T10:37:57.454Z,21.93
2019-03-24T10:40:29.210Z,23.43
2019-03-24T10:43:04.479Z,33.20
2019-03-24T10:45:33.446Z,23.37
2019-03-24T10:48:03.758Z,22.17
2019-03-24T10:50:32.937Z,19.67
2019-03-24T10:53:02.171Z,24.77
2019-03-24T10:55:31.004Z,24.80
2019-03-24T10:58:00.442Z,19.63
2019-03-24T11:00:47.680Z,23.10
2019-03-24T11:03:17.226Z,17.10
2019-03-24T11:05:46.070Z,17.47
2019-03-24T11:08:15.211Z,20.83
2019-03-24T11:10:44.060Z,19.37
2019-03-24T11:13:12.989Z,21.87
2019-03-24T11:15:41.997Z,18.23
2019-03-24T11:18:11.128Z,17.43
2019-03-24T11:20:40.015Z,22.07
2019-03-24T11:23:09.369Z,21.20
2019-03-24T11:25:38.273Z,24.03
2019-03-24T11:28:07.088Z,22.63
2019-03-24T11:30:36.141Z,17.83
2019-03-24T11:33:07.632Z,21.20
2019-03-24T11:35:36.593Z,23.40
2019-03-24T11:38:05.725Z,26.30
2019-03-24T11:40:34.884Z,14.73
2019-03-24T11:43:04.135Z,22.97
2019-03-24T11:45:33.084Z,17.90
2019-03-24T11:48:01.934Z,12.47
2019-03-24T11:50:31.034Z,17.90
2019-03-24T11:53:00.266Z,17.67
2019-03-24T11:55:29.788Z,16.77
2019-03-24T11:58:05.807Z,12.23
2019-03-24T12:00:38.278Z,17.43
2019-03-24T12:03:07.234Z,14.80
2019-03-24T12:05:36.132Z,14.03
2019-03-24T12:08:05.619Z,12.63
2019-03-24T12:10:34.822Z,13.73
2019-03-24T12:13:03.887Z,21.20
2019-03-24T12:15:32.947Z,14.03
2019-03-24T12:18:05.154Z,14.20
2019-03-24T12:20:34.401Z,15.80
2019-03-24T12:23:03.426Z,14.43
2019-03-24T12:25:32.427Z,13.33
2019-03-24T12:28:01.748Z,17.53
2019-03-24T12:30:30.834Z,11.33
2019-03-24T12:32:59.814Z,15.27
2019-03-24T12:35:30.856Z,17.33
2019-03-24T12:37:59.861Z,12.40
2019-03-24T12:40:28.821Z,10.20
2019-03-24T12:42:58.006Z,12.27
2019-03-24T12:45:26.981Z,9.53
2019-03-24T12:47:56.037Z,10.07
2019-03-24T12:50:31.393Z,10.90
2019-03-24T12:52:56.171Z,9.63
2019-03-24T12:55:25.332Z,8.90
2019-03-24T12:57:54.335Z,9.40
2019-03-24T13:00:37.156Z,16.63
2019-03-24T13:03:06.415Z,13.03
2019-03-24T13:05:35.400Z,14.90
2019-03-24T13:08:23.660Z,6.27
2019-03-24T13:10:52.563Z,12.90
2019-03-24T13:13:21.442Z,11.53
2019-03-24T13:15:50.444Z,11.00
2019-03-24T13:18:20.462Z,8.73
2019-03-24T13:20:49.563Z,13.03
2019-03-24T13:23:18.591Z,8.47
2019-03-24T13:25:47.654Z,8.80
2019-03-24T13:28:16.569Z,8.73
2019-03-24T13:30:45.629Z,10.50
2019-03-24T13:33:14.533Z,9.57
2019-03-24T13:35:43.530Z,11.27
2019-03-24T13:38:12.562Z,8.47
2019-03-24T13:40:41.492Z,12.10
2019-03-24T13:43:10.556Z,9.13
2019-03-24T13:45:40.019Z,16.73
2019-03-24T13:48:09.129Z,9.27
2019-03-24T13:50:38.475Z,13.33
2019-03-24T13:53:07.510Z,11.43
2019-03-24T13:55:36.591Z,14.77
2019-03-24T13:58:06.700Z,9.30
2019-03-24T14:00:35.763Z,8.07
2019-03-24T14:03:06.304Z,12.40
2019-03-24T14:05:35.434Z,10.60
2019-03-24T14:08:04.393Z,11.93
2019-03-24T14:10:33.523Z,9.13
2019-03-24T14:13:02.582Z,11.27
2019-03-24T14:15:31.437Z,9.07
2019-03-24T14:18:00.457Z,11.30
2019-03-24T14:23:20.494Z,11.87
2019-03-24T14:25:49.585Z,12.20
2019-03-24T14:28:18.563Z,11.63
2019-03-24T14:30:48.998Z,14.03
2019-03-24T14:33:19.724Z,11.90
2019-03-24T14:35:48.686Z,16.60
2019-03-24T14:38:17.993Z,8.50
2019-03-24T14:40:47.028Z,10.27
2019-03-24T14:43:17.083Z,9.13
2019-03-24T14:45:46.072Z,9.23
2019-03-24T14:48:15.229Z,9.90
2019-03-24T14:50:54.112Z,15.50
2019-03-24T14:53:15.295Z,12.07
2019-03-24T14:55:45.550Z,11.33
2019-03-24T14:58:14.520Z,14.90
2019-03-24T15:00:46.568Z,12.73
2019-03-24T15:03:15.538Z,15.63
2019-03-24T15:05:44.954Z,14.97
2019-03-24T15:08:13.959Z,12.80
2019-03-24T15:10:42.914Z,11.73
2019-03-24T15:13:11.864Z,14.33
2019-03-24T15:15:41.174Z,9.83
2019-03-24T15:18:10.219Z,13.70
2019-03-24T15:20:39.385Z,12.67
2019-03-24T15:23:09.419Z,18.70
2019-03-24T15:25:40.548Z,18.93
2019-03-24T15:28:09.510Z,14.53
2019-03-24T15:30:38.433Z,12.53
2019-03-24T15:33:07.585Z,16.90
2019-03-24T15:35:36.679Z,11.70
2019-03-24T15:38:08.460Z,16.00
2019-03-24T15:40:36.791Z,21.00
2019-03-24T15:43:06.036Z,15.57
2019-03-24T15:45:35.138Z,14.03
2019-03-24T15:48:04.141Z,19.40
2019-03-24T15:50:33.248Z,19.93
2019-03-24T15:53:02.342Z,19.27
2019-03-24T15:55:31.945Z,18.37
2019-03-24T15:58:01.125Z,17.57
2019-03-24T16:00:49.972Z,18.30
2019-03-24T16:03:19.334Z,15.83
2019-03-24T16:05:48.437Z,21.23
2019-03-24T16:08:17.439Z,16.93
2019-03-24T16:10:46.371Z,15.87
2019-03-24T16:13:16.354Z,14.57
2019-03-24T16:15:45.400Z,16.77
2019-03-24T16:18:14.331Z,20.27
2019-03-24T16:20:43.451Z,20.00
2019-03-24T16:23:12.342Z,16.30
2019-03-24T16:25:42.627Z,18.43
2019-03-24T16:28:11.680Z,22.57
2019-03-24T16:30:40.869Z,20.23
2019-03-24T16:33:12.132Z,17.43
2019-03-24T16:35:42.035Z,21.30
2019-03-24T16:38:11.148Z,18.97
2019-03-24T16:40:41.497Z,19.57
2019-03-24T16:43:10.674Z,19.97
2019-03-24T16:45:39.807Z,19.37
2019-03-24T16:48:08.831Z,20.23
2019-03-24T16:50:37.946Z,18.33
2019-03-24T16:53:06.972Z,19.90
2019-03-24T16:55:36.122Z,20.97
2019-03-24T16:58:05.254Z,15.10
2019-03-24T17:00:34.377Z,21.07
2019-03-24T17:03:03.268Z,19.93
2019-03-24T17:05:32.520Z,18.13
2019-03-24T17:08:11.506Z,20.50
2019-03-24T17:10:41.147Z,21.20
2019-03-24T17:13:10.561Z,17.00
2019-03-24T17:15:40.938Z,18.93
2019-03-24T17:18:10.180Z,19.40
2019-03-24T17:20:39.319Z,19.83
2019-03-24T17:23:08.467Z,19.67
2019-03-24T17:25:37.368Z,16.17
2019-03-24T17:28:06.595Z,16.43
2019-03-24T17:30:35.624Z,21.90
2019-03-24T17:33:04.627Z,23.83
2019-03-24T17:35:33.455Z,21.53
2019-03-24T17:38:02.430Z,26.07
2019-03-24T17:40:31.437Z,25.40
2019-03-24T17:43:00.524Z,20.90
2019-03-24T17:45:29.416Z,24.33
2019-03-24T17:47:59.545Z,20.00
2019-03-24T17:50:29.045Z,18.13
2019-03-24T17:52:58.043Z,16.63
2019-03-24T17:55:28.053Z,19.70
2019-03-24T17:57:58.048Z,19.83
2019-03-24T18:00:43.022Z,22.23
2019-03-24T18:03:12.641Z,17.60
2019-03-24T18:05:42.415Z,21.10
2019-03-24T18:08:11.577Z,17.50
2019-03-24T18:10:41.859Z,19.70
2019-03-24T18:13:10.783Z,21.43
2019-03-24T18:15:39.678Z,23.40
2019-03-24T18:18:09.230Z,14.63
2019-03-24T18:20:38.274Z,21.53
2019-03-24T18:23:08.343Z,21.40
2019-03-24T18:25:37.360Z,20.03
2019-03-24T18:28:06.362Z,15.90
2019-03-24T18:30:35.375Z,14.73
2019-03-24T18:33:04.599Z,10.50
2019-03-24T18:35:33.630Z,13.83
2019-03-24T18:38:03.137Z,11.20
2019-03-24T18:40:32.645Z,12.93
2019-03-24T18:43:01.678Z,20.90
2019-03-24T18:45:31.770Z,14.17
2019-03-24T18:48:00.743Z,12.97
2019-03-24T18:50:29.753Z,10.33
2019-03-24T18:52:58.662Z,11.47
2019-03-24T18:55:27.562Z,9.90
2019-03-24T18:57:57.265Z,7.37
2019-03-24T19:00:26.787Z,8.40
2019-03-24T19:02:56.775Z,18.27
2019-03-24T19:05:26.379Z,10.07
2019-03-24T19:07:55.924Z,15.40
2019-03-24T19:10:24.911Z,12.07
2019-03-24T19:12:55.018Z,13.20
2019-03-24T19:15:24.366Z,12.13
2019-03-24T19:17:55.243Z,8.93
2019-03-24T19:20:24.109Z,12.63
2019-03-24T19:22:53.032Z,10.60
2019-03-24T19:25:24.485Z,9.60
2019-03-24T19:27:53.931Z,15.90
2019-03-24T19:30:35.106Z,10.50
2019-03-24T19:33:04.151Z,10.57
2019-03-24T19:35:33.585Z,11.57
2019-03-24T19:38:02.775Z,9.77
2019-03-24T19:40:32.551Z,13.07
2019-03-24T19:43:01.782Z,10.60
2019-03-24T19:45:30.723Z,15.23
2019-03-24T19:47:59.629Z,11.73
2019-03-24T19:50:28.520Z,13.70
2019-03-24T19:52:57.526Z,11.77
2019-03-24T19:55:26.669Z,13.40
2019-03-24T19:57:55.829Z,11.40
2019-03-24T20:00:25.017Z,12.17
2019-03-24T20:02:54.169Z,10.23
2019-03-24T20:05:23.234Z,16.33
2019-03-24T20:07:52.298Z,11.80
2019-03-24T20:10:21.295Z,10.27
2019-03-24T20:12:51.439Z,12.97
2019-03-24T20:15:20.560Z,13.40
2019-03-24T20:17:49.920Z,14.30
2019-03-24T20:20:18.949Z,14.57
2019-03-24T20:22:56.363Z,15.87
2019-03-24T20:25:18.883Z,10.67
2019-03-24T20:27:49.856Z,11.37
2019-03-24T20:30:19.386Z,12.50
2019-03-24T20:32:48.421Z,10.53
2019-03-24T20:35:17.684Z,10.47
2019-03-24T20:37:46.763Z,13.60
2019-03-24T20:40:16.295Z,14.67
2019-03-24T20:42:45.178Z,16.00
2019-03-24T20:45:14.683Z,12.40
2019-03-24T20:47:43.772Z,13.93
2019-03-24T20:50:13.277Z,13.93
2019-03-24T20:52:42.326Z,14.30
2019-03-24T20:55:11.881Z,15.67
2019-03-24T20:57:40.856Z,19.63
2019-03-24T21:00:10.282Z,21.83
2019-03-24T21:02:41.123Z,17.40
2019-03-24T21:05:11.203Z,12.47
2019-03-24T21:07:40.592Z,14.93
2019-03-24T21:10:09.614Z,17.80
2019-03-24T21:12:39.658Z,14.23
2019-03-24T21:15:11.267Z,15.13
2019-03-24T21:17:42.363Z,19.47
2019-03-24T21:20:11.886Z,15.73
2019-03-24T21:22:41.066Z,11.80
2019-03-24T21:25:13.325Z,14.63
2019-03-24T21:27:42.487Z,13.77
2019-03-24T21:30:12.898Z,16.87
2019-03-24T21:32:42.162Z,17.90
2019-03-24T21:35:11.466Z,17.50
2019-03-24T21:37:40.391Z,14.17
2019-03-24T21:40:09.563Z,15.13
2019-03-24T21:42:38.472Z,12.17
2019-03-24T21:45:08.411Z,16.87
2019-03-24T21:47:37.509Z,14.43
2019-03-24T21:50:06.967Z,12.50
2019-03-24T21:52:35.895Z,15.47
2019-03-24T21:55:05.227Z,16.93
2019-03-24T21:57:34.263Z,16.02
2019-03-24T22:00:04.617Z,10.33
2019-03-24T22:02:33.772Z,14.70
2019-03-24T22:05:02.870Z,10.57
2019-03-24T22:07:31.889Z,16.97
2019-03-24T22:10:00.764Z,14.50
2019-03-24T22:12:30.988Z,16.07
2019-03-24T22:15:01.160Z,14.53
2019-03-24T22:17:30.029Z,11.90
2019-03-24T22:19:58.953Z,18.00
2019-03-24T22:22:27.963Z,12.83
2019-03-24T22:24:56.955Z,12.90
2019-03-24T22:27:26.831Z,14.53
2019-03-24T22:29:55.844Z,12.20
2019-03-24T22:32:24.775Z,15.17
2019-03-24T22:34:53.702Z,12.20
2019-03-24T22:37:22.656Z,22.30
2019-03-24T22:39:51.590Z,12.47
2019-03-24T22:42:22.003Z,15.97
2019-03-24T22:44:51.001Z,15.67
2019-03-24T22:47:19.957Z,13.80
2019-03-24T22:49:49.026Z,16.77
2019-03-24T22:52:18.057Z,14.83
2019-03-24T22:54:49.321Z,15.60
2019-03-24T22:57:18.234Z,16.30
2019-03-24T22:59:47.769Z,11.60
2019-03-24T23:02:17.183Z,19.70
2019-03-24T23:04:46.764Z,13.90
2019-03-24T23:07:15.724Z,15.03
2019-03-24T23:09:45.003Z,14.10
2019-03-24T23:12:14.406Z,18.43
2019-03-24T23:14:44.520Z,19.57
2019-03-24T23:17:13.622Z,18.30
2019-03-24T23:19:42.866Z,16.30
2019-03-24T23:22:12.119Z,18.20
2019-03-24T23:24:41.875Z,14.20
2019-03-24T23:27:12.566Z,12.73
2019-03-24T23:29:42.628Z,14.03
2019-03-24T23:32:12.031Z,11.53
2019-03-24T23:34:41.357Z,18.13
2019-03-24T23:37:11.096Z,12.70
2019-03-24T23:39:40.081Z,15.50
2019-03-24T23:42:09.133Z,17.17
2019-03-24T23:44:38.089Z,19.70
2019-03-24T23:47:07.187Z,12.27
2019-03-24T23:49:36.165Z,17.47
2019-03-24T23:52:05.063Z,14.00
2019-03-24T23:54:34.134Z,15.13
2019-03-24T23:57:03.158Z,15.07
2019-03-24T23:59:32.150Z,13.67
